createdAt,value
2023-02-15T00:01:57.322Z,8.12
2023-02-15T00:04:25.627Z,7.44
2023-02-15T00:06:52.366Z,7.69
2023-02-15T00:09:18.861Z,7.82
2023-02-15T00:11:51.021Z,7.47
2023-02-15T00:14:22.861Z,7.68
2023-02-15T00:16:51.347Z,7.63
2023-02-15T00:19:19.384Z,7.53
2023-02-15T00:21:47.177Z,7.68
2023-02-15T00:24:16.108Z,7.83
2023-02-15T00:26:43.973Z,7.59
2023-02-15T00:29:11.872Z,7.70
2023-02-15T00:31:38.684Z,7.86
2023-02-15T00:34:08.293Z,7.91
2023-02-15T00:36:34.949Z,7.65
2023-02-15T00:39:01.664Z,7.45
2023-02-15T00:41:28.563Z,7.82
2023-02-15T00:43:55.180Z,7.96
2023-02-15T00:46:21.860Z,7.99
2023-02-15T00:48:48.449Z,7.86
2023-02-15T00:51:15.118Z,7.84
2023-02-15T00:53:41.931Z,6.99
2023-02-15T00:56:08.883Z,7.56
2023-02-15T00:58:35.729Z,7.42
2023-02-15T01:01:07.757Z,7.37
2023-02-15T01:03:34.998Z,7.42
2023-02-15T01:06:02.790Z,7.68
2023-02-15T01:08:29.730Z,7.32
2023-02-15T01:10:56.651Z,7.39
2023-02-15T01:13:23.569Z,7.45
2023-02-15T01:15:55.598Z,7.23
2023-02-15T01:18:22.967Z,7.56
2023-02-15T01:20:50.042Z,7.51
2023-02-15T01:23:16.781Z,7.71
2023-02-15T01:25:46.124Z,7.32
2023-02-15T01:28:12.726Z,7.45
2023-02-15T01:30:39.214Z,7.49
2023-02-15T01:33:05.855Z,7.39
2023-02-15T01:35:32.789Z,7.18
2023-02-15T01:37:59.855Z,7.34
2023-02-15T01:40:26.733Z,7.16
2023-02-15T01:42:55.071Z,7.08
2023-02-15T01:45:23.230Z,7.12
2023-02-15T01:48:02.842Z,7.06
2023-02-15T01:50:29.522Z,7.03
2023-02-15T01:53:05.056Z,7.13
2023-02-15T01:55:35.289Z,7.32
2023-02-15T01:58:02.394Z,7.19
2023-02-15T02:00:29.501Z,6.79
2023-02-15T02:02:58.208Z,6.46
2023-02-15T02:05:25.580Z,6.91
2023-02-15T02:07:53.634Z,6.98
2023-02-15T02:10:24.125Z,6.97
2023-02-15T02:12:54.112Z,7.01
2023-02-15T02:15:27.310Z,6.74
2023-02-15T02:18:32.547Z,6.74
2023-02-15T02:21:21.108Z,6.91
2023-02-15T02:24:10.106Z,7.09
2023-02-15T02:27:10.413Z,7.01
2023-02-15T02:30:07.334Z,7.01
2023-02-15T02:32:52.927Z,7.05
2023-02-15T02:35:22.744Z,6.42
2023-02-15T02:38:11.303Z,6.63
2023-02-15T02:40:43.783Z,6.74
2023-02-15T02:43:21.805Z,6.37
2023-02-15T02:45:58.571Z,6.44
2023-02-15T02:48:28.010Z,6.64
2023-02-15T02:50:54.537Z,6.34
2023-02-15T02:53:21.074Z,6.18
2023-02-15T02:56:10.963Z,6.40
2023-02-15T02:58:37.415Z,6.44
2023-02-15T03:01:06.797Z,6.34
2023-02-15T03:03:37.861Z,5.90
2023-02-15T03:06:18.813Z,5.88
2023-02-15T03:08:56.487Z,6.17
2023-02-15T03:11:23.043Z,6.17
2023-02-15T03:13:50.209Z,6.14
2023-02-15T03:16:27.214Z,6.20
2023-02-15T03:19:03.196Z,6.43
2023-02-15T03:21:58.364Z,5.62
2023-02-15T03:24:29.472Z,5.95
2023-02-15T03:26:56.980Z,6.07
2023-02-15T03:29:26.129Z,6.23
2023-02-15T03:31:57.692Z,6.16
2023-02-15T03:34:24.392Z,6.37
2023-02-15T03:37:08.133Z,6.11
2023-02-15T03:39:38.659Z,5.63
2023-02-15T03:42:12.996Z,6.12
2023-02-15T03:44:55.071Z,6.07
2023-02-15T03:47:25.907Z,6.05
2023-02-15T03:50:03.767Z,6.07
2023-02-15T03:52:32.085Z,5.88
2023-02-15T03:54:58.899Z,6.27
2023-02-15T03:57:46.348Z,6.23
2023-02-15T04:00:36.587Z,6.41
2023-02-15T04:03:20.915Z,6.18
2023-02-15T04:05:47.655Z,6.36
2023-02-15T04:08:14.421Z,5.67
2023-02-15T04:10:53.074Z,5.28
2023-02-15T04:13:32.122Z,5.75
2023-02-15T04:16:05.591Z,5.99
2023-02-15T04:18:59.935Z,6.15
2023-02-15T04:21:47.610Z,6.17
2023-02-15T04:24:33.504Z,6.14
2023-02-15T04:27:00.667Z,6.31
2023-02-15T04:29:28.259Z,6.37
2023-02-15T04:31:56.363Z,6.53
2023-02-15T04:34:22.974Z,6.55
2023-02-15T04:36:51.160Z,6.24
2023-02-15T04:39:18.785Z,6.35
2023-02-15T04:41:45.955Z,5.64
2023-02-15T04:44:12.679Z,5.69
2023-02-15T04:46:39.216Z,5.96
2023-02-15T04:49:05.756Z,5.88
2023-02-15T04:51:32.263Z,5.36
2023-02-15T04:53:59.119Z,5.52
2023-02-15T04:56:25.635Z,5.78
2023-02-15T04:58:52.252Z,5.88
2023-02-15T05:01:19.882Z,5.92
2023-02-15T05:03:46.494Z,5.66
2023-02-15T05:06:13.346Z,5.89
2023-02-15T05:08:40.031Z,5.58
2023-02-15T05:11:06.575Z,5.67
2023-02-15T05:13:33.933Z,5.89
2023-02-15T05:16:00.958Z,5.84
2023-02-15T05:18:27.946Z,5.97
2023-02-15T05:20:54.655Z,5.88
2023-02-15T05:23:21.439Z,5.80
2023-02-15T05:26:08.203Z,5.22
2023-02-15T05:28:36.282Z,5.67
2023-02-15T05:31:05.912Z,5.71
2023-02-15T05:33:33.279Z,5.66
2023-02-15T05:36:02.035Z,5.60
2023-02-15T05:38:31.294Z,5.93
2023-02-15T05:40:59.744Z,5.96
2023-02-15T05:43:26.390Z,5.82
2023-02-15T05:45:55.463Z,5.73
2023-02-15T05:48:24.265Z,5.41
2023-02-15T05:51:05.109Z,5.41
2023-02-15T05:53:33.544Z,5.62
2023-02-15T05:56:01.512Z,5.49
2023-02-15T05:58:34.130Z,5.36
2023-02-15T06:01:00.750Z,5.01
2023-02-15T06:03:29.375Z,5.08
2023-02-15T06:05:56.152Z,5.26
2023-02-15T06:08:22.736Z,5.35
2023-02-15T06:10:49.332Z,5.42
2023-02-15T06:13:15.872Z,5.71
2023-02-15T06:15:42.502Z,5.71
2023-02-15T06:18:09.310Z,5.74
2023-02-15T06:20:35.778Z,5.92
2023-02-15T06:23:02.449Z,5.75
2023-02-15T06:25:29.891Z,5.53
2023-02-15T06:27:56.441Z,5.25
2023-02-15T06:30:23.386Z,5.54
2023-02-15T06:32:49.918Z,5.54
2023-02-15T06:35:16.479Z,5.48
2023-02-15T06:37:43.095Z,4.88
2023-02-15T06:40:09.972Z,5.18
2023-02-15T06:42:36.804Z,5.27
2023-02-15T06:45:04.320Z,5.19
2023-02-15T06:47:31.436Z,5.31
2023-02-15T06:49:58.625Z,5.12
2023-02-15T06:52:25.318Z,5.42
2023-02-15T06:54:52.000Z,5.46
2023-02-15T06:57:18.510Z,5.56
2023-02-15T06:59:45.003Z,5.39
2023-02-15T07:02:15.048Z,4.85
2023-02-15T07:04:41.842Z,4.68
2023-02-15T07:07:12.321Z,4.81
2023-02-15T07:09:39.613Z,5.02
2023-02-15T07:12:24.798Z,4.83
2023-02-15T07:14:51.467Z,5.08
2023-02-15T07:17:35.052Z,5.12
2023-02-15T07:20:10.918Z,5.20
2023-02-15T07:22:38.158Z,4.91
2023-02-15T07:25:06.239Z,5.08
2023-02-15T07:27:33.359Z,5.49
2023-02-15T07:30:00.689Z,5.38
2023-02-15T07:32:32.103Z,5.42
2023-02-15T07:34:59.710Z,5.69
2023-02-15T07:37:26.980Z,5.58
2023-02-15T07:39:54.033Z,5.98
2023-02-15T07:42:22.039Z,5.49
2023-02-15T07:44:48.823Z,5.83
2023-02-15T07:47:15.673Z,5.51
2023-02-15T07:49:42.661Z,5.86
2023-02-15T07:52:09.517Z,6.25
2023-02-15T07:54:36.051Z,6.52
2023-02-15T07:57:03.031Z,6.60
2023-02-15T07:59:29.603Z,7.11
2023-02-15T08:01:57.599Z,6.93
2023-02-15T08:04:24.844Z,7.53
2023-02-15T08:06:54.200Z,7.88
2023-02-15T08:09:21.378Z,7.90
2023-02-15T08:11:48.237Z,8.35
2023-02-15T08:14:17.123Z,8.48
2023-02-15T08:16:45.550Z,8.62
2023-02-15T08:19:22.362Z,8.96
2023-02-15T08:22:08.484Z,9.24
2023-02-15T08:24:38.014Z,9.55
2023-02-15T08:27:06.565Z,9.79
2023-02-15T08:29:34.933Z,10.09
2023-02-15T08:32:04.422Z,10.48
2023-02-15T08:34:33.379Z,10.82
2023-02-15T08:37:00.148Z,10.92
2023-02-15T08:39:26.774Z,11.16
2023-02-15T08:41:53.650Z,11.58
2023-02-15T08:44:21.446Z,11.77
2023-02-15T08:46:49.590Z,12.19
2023-02-15T08:49:19.148Z,12.51
2023-02-15T08:51:46.189Z,12.83
2023-02-15T08:54:18.722Z,13.12
2023-02-15T08:56:46.296Z,13.41
2023-02-15T08:59:21.532Z,13.66
2023-02-15T09:01:50.025Z,13.80
2023-02-15T09:04:17.664Z,13.94
2023-02-15T09:06:47.913Z,14.36
2023-02-15T09:09:15.638Z,14.55
2023-02-15T09:11:44.378Z,14.83
2023-02-15T09:14:16.131Z,15.14
2023-02-15T09:16:49.837Z,15.63
2023-02-15T09:19:18.414Z,16.06
2023-02-15T09:21:44.990Z,16.53
2023-02-15T09:24:14.169Z,16.91
2023-02-15T09:26:46.520Z,17.20
2023-02-15T09:29:14.275Z,17.60
2023-02-15T09:31:51.413Z,17.96
2023-02-15T09:34:20.526Z,18.57
2023-02-15T09:36:47.708Z,18.99
2023-02-15T09:39:24.485Z,19.48
2023-02-15T09:42:12.949Z,19.76
2023-02-15T09:45:01.166Z,20.21
2023-02-15T09:47:46.116Z,20.79
2023-02-15T09:50:12.625Z,21.46
2023-02-15T09:52:49.245Z,23.80
2023-02-15T09:55:19.647Z,28.71
2023-02-15T09:57:46.272Z,32.71
2023-02-15T10:00:24.250Z,36.49
2023-02-15T10:03:05.904Z,39.30
2023-02-15T10:06:03.362Z,41.26
2023-02-15T10:08:42.034Z,41.41
2023-02-15T10:11:35.122Z,40.96
2023-02-15T10:14:21.369Z,40.45
2023-02-15T10:16:55.060Z,39.60
2023-02-15T10:19:37.226Z,41.45
2023-02-15T10:22:10.050Z,44.61
2023-02-15T10:24:41.357Z,45.93
2023-02-15T10:27:14.190Z,43.57
2023-02-15T10:29:53.593Z,44.70
2023-02-15T10:32:25.486Z,42.35
2023-02-15T10:34:57.223Z,44.29
2023-02-15T10:37:42.019Z,46.68
2023-02-15T10:40:27.130Z,46.83
2023-02-15T10:42:59.898Z,47.61
2023-02-15T10:45:42.887Z,49.38
2023-02-15T10:48:31.977Z,50.25
2023-02-15T10:51:00.821Z,51.29
2023-02-15T10:53:52.241Z,48.05
2023-02-15T10:56:42.448Z,49.30
2023-02-15T10:59:18.128Z,43.61
2023-02-15T11:01:53.805Z,47.75
2023-02-15T11:04:44.613Z,47.50
2023-02-15T11:07:19.101Z,45.65
2023-02-15T11:09:49.398Z,48.38
2023-02-15T11:12:19.679Z,47.59
2023-02-15T11:14:55.102Z,49.11
2023-02-15T11:17:36.028Z,48.05
2023-02-15T11:20:19.420Z,45.45
2023-02-15T11:22:49.548Z,44.79
2023-02-15T11:25:19.756Z,46.19
2023-02-15T11:27:47.811Z,47.14
2023-02-15T11:30:16.408Z,44.40
2023-02-15T11:32:46.081Z,46.68
2023-02-15T11:35:17.358Z,46.99
2023-02-15T11:37:48.675Z,42.61
2023-02-15T11:40:41.195Z,42.60
2023-02-15T11:43:32.507Z,45.22
2023-02-15T11:45:59.102Z,43.99
2023-02-15T11:48:25.753Z,43.01
2023-02-15T11:50:52.474Z,44.13
2023-02-15T11:53:22.214Z,39.71
2023-02-15T11:55:51.975Z,38.44
2023-02-15T11:58:29.268Z,35.09
2023-02-15T12:01:01.975Z,35.95
2023-02-15T12:03:45.585Z,39.41
2023-02-15T12:06:33.616Z,39.35
2023-02-15T12:09:06.441Z,37.50
2023-02-15T12:11:40.721Z,37.99
2023-02-15T12:14:09.977Z,39.96
2023-02-15T12:17:00.666Z,40.36
2023-02-15T12:19:30.239Z,38.28
2023-02-15T12:21:57.341Z,36.01
2023-02-15T12:24:33.870Z,36.90
2023-02-15T12:27:05.052Z,40.34
2023-02-15T12:29:56.362Z,34.54
2023-02-15T12:32:28.501Z,37.20
2023-02-15T12:35:01.654Z,35.60
2023-02-15T12:37:32.872Z,35.20
2023-02-15T12:40:01.073Z,33.89
2023-02-15T12:42:30.144Z,32.09
2023-02-15T12:45:05.635Z,31.01
2023-02-15T12:47:33.467Z,27.08
2023-02-15T12:50:18.082Z,24.43
2023-02-15T12:52:50.251Z,24.32
2023-02-15T12:55:28.213Z,23.34
2023-02-15T12:58:09.523Z,22.67
2023-02-15T13:00:36.464Z,21.47
2023-02-15T13:03:03.834Z,22.42
2023-02-15T13:05:44.205Z,21.80
2023-02-15T13:08:11.991Z,22.14
2023-02-15T13:10:42.508Z,20.31
2023-02-15T13:13:18.748Z,21.13
2023-02-15T13:15:48.319Z,21.22
2023-02-15T13:18:22.941Z,21.86
2023-02-15T13:20:49.679Z,22.09
2023-02-15T13:23:28.369Z,22.22
2023-02-15T13:25:57.065Z,21.01
2023-02-15T13:28:27.878Z,21.59
2023-02-15T13:30:54.612Z,21.45
2023-02-15T13:33:35.908Z,21.90
2023-02-15T13:36:24.014Z,22.21
2023-02-15T13:38:56.764Z,21.55
2023-02-15T13:41:28.512Z,21.34
2023-02-15T13:44:04.529Z,21.77
2023-02-15T13:47:03.898Z,21.11
2023-02-15T13:49:34.175Z,21.56
2023-02-15T13:52:15.016Z,20.45
2023-02-15T13:55:12.022Z,20.67
2023-02-15T13:57:56.455Z,20.27
2023-02-15T14:01:01.322Z,19.87
2023-02-15T14:03:53.770Z,20.04
2023-02-15T14:06:20.271Z,20.23
2023-02-15T14:09:08.765Z,20.37
2023-02-15T14:11:47.413Z,20.38
2023-02-15T14:14:32.452Z,20.64
2023-02-15T14:17:12.856Z,20.01
2023-02-15T14:19:50.711Z,19.52
2023-02-15T14:22:32.959Z,19.75
2023-02-15T14:25:14.720Z,19.08
2023-02-15T14:27:59.722Z,19.78
2023-02-15T14:30:48.106Z,18.82
2023-02-15T14:33:14.966Z,19.37
2023-02-15T14:35:43.711Z,19.57
2023-02-15T14:38:34.066Z,19.73
2023-02-15T14:41:04.487Z,19.40
2023-02-15T14:44:01.569Z,19.60
2023-02-15T14:46:32.390Z,19.28
2023-02-15T14:49:23.356Z,19.88
2023-02-15T14:51:50.973Z,19.65
2023-02-15T14:54:17.953Z,19.66
2023-02-15T14:56:48.243Z,20.56
2023-02-15T14:59:17.255Z,20.32
2023-02-15T15:01:53.788Z,19.71
2023-02-15T15:04:28.974Z,20.32
2023-02-15T15:07:03.650Z,19.64
2023-02-15T15:09:31.065Z,19.78
2023-02-15T15:12:26.856Z,19.49
2023-02-15T15:14:55.073Z,19.33
2023-02-15T15:17:33.934Z,18.89
2023-02-15T15:20:14.563Z,18.72
2023-02-15T15:22:42.878Z,19.10
2023-02-15T15:25:45.725Z,19.17
2023-02-15T15:28:34.222Z,18.62
2023-02-15T15:31:15.077Z,18.53
2023-02-15T15:34:06.167Z,18.70
2023-02-15T15:37:07.724Z,19.03
2023-02-15T15:40:02.152Z,19.00
2023-02-15T15:42:47.332Z,18.96
2023-02-15T15:45:39.225Z,18.89
2023-02-15T15:48:17.738Z,18.83
2023-02-15T15:50:44.747Z,18.73
2023-02-15T15:53:20.564Z,18.49
2023-02-15T15:55:48.678Z,18.33
2023-02-15T15:58:18.424Z,18.51
2023-02-15T16:00:48.741Z,18.24
2023-02-15T16:03:17.134Z,18.20
2023-02-15T16:05:44.018Z,17.90
2023-02-15T16:08:10.930Z,17.88
2023-02-15T16:10:38.966Z,17.90
2023-02-15T16:13:07.178Z,17.56
2023-02-15T16:15:45.314Z,17.57
2023-02-15T16:18:17.858Z,17.35
2023-02-15T16:20:56.844Z,17.29
2023-02-15T16:24:05.511Z,17.09
2023-02-15T16:26:47.284Z,16.99
2023-02-15T16:29:18.612Z,16.81
2023-02-15T16:32:04.601Z,16.59
2023-02-15T16:34:33.521Z,15.95
2023-02-15T16:37:20.579Z,16.11
2023-02-15T16:39:49.111Z,16.09
2023-02-15T16:42:17.489Z,15.95
2023-02-15T16:44:49.445Z,15.63
2023-02-15T16:47:20.394Z,15.54
2023-02-15T16:49:49.495Z,15.81
2023-02-15T16:52:25.094Z,15.78
2023-02-15T16:54:56.108Z,15.25
2023-02-15T16:57:25.993Z,15.02
2023-02-15T16:59:54.948Z,14.86
2023-02-15T17:02:54.446Z,14.96
2023-02-15T17:05:21.049Z,14.95
2023-02-15T17:08:08.042Z,14.84
2023-02-15T17:10:37.479Z,14.57
2023-02-15T17:13:13.818Z,14.62
2023-02-15T17:15:44.018Z,14.62
2023-02-15T17:18:18.808Z,14.39
2023-02-15T17:20:46.230Z,14.38
2023-02-15T17:23:33.997Z,14.47
2023-02-15T17:26:03.600Z,14.41
2023-02-15T17:28:32.113Z,14.09
2023-02-15T17:30:59.245Z,13.81
2023-02-15T17:33:46.573Z,13.88
2023-02-15T17:36:17.072Z,13.85
2023-02-15T17:38:58.996Z,13.77
2023-02-15T17:41:32.209Z,13.80
2023-02-15T17:43:58.991Z,13.60
2023-02-15T17:46:28.332Z,13.58
2023-02-15T17:48:56.217Z,13.59
2023-02-15T17:51:23.636Z,13.15
2023-02-15T17:54:08.777Z,13.52
2023-02-15T17:56:36.831Z,13.08
2023-02-15T17:59:07.579Z,13.11
2023-02-15T18:01:57.816Z,12.98
2023-02-15T18:04:43.720Z,13.08
2023-02-15T18:07:30.370Z,12.96
2023-02-15T18:10:16.081Z,13.11
2023-02-15T18:12:42.715Z,13.17
2023-02-15T18:15:11.528Z,12.86
2023-02-15T18:17:41.599Z,13.16
2023-02-15T18:20:18.157Z,12.98
2023-02-15T18:22:46.370Z,13.16
2023-02-15T18:25:18.542Z,12.96
2023-02-15T18:27:45.557Z,12.89
2023-02-15T18:30:31.258Z,12.62
2023-02-15T18:32:58.587Z,13.06
2023-02-15T18:35:27.338Z,12.73
2023-02-15T18:37:54.396Z,12.78
2023-02-15T18:40:23.382Z,12.68
2023-02-15T18:42:50.062Z,12.79
2023-02-15T18:45:18.509Z,12.86
2023-02-15T18:47:46.113Z,12.71
2023-02-15T18:50:18.062Z,12.67
2023-02-15T18:52:50.905Z,12.20
2023-02-15T18:55:23.164Z,12.11
2023-02-15T18:57:51.848Z,12.60
2023-02-15T19:00:20.886Z,12.44
2023-02-15T19:02:48.144Z,12.03
2023-02-15T19:05:18.568Z,12.03
2023-02-15T19:07:48.351Z,11.97
2023-02-15T19:10:18.917Z,12.17
2023-02-15T19:12:45.665Z,11.91
2023-02-15T19:15:21.466Z,12.09
2023-02-15T19:17:48.027Z,12.17
2023-02-15T19:20:39.217Z,12.22
2023-02-15T19:23:19.470Z,12.23
2023-02-15T19:25:47.359Z,11.98
2023-02-15T19:28:32.813Z,11.87
2023-02-15T19:30:59.464Z,11.86
2023-02-15T19:33:26.553Z,11.98
2023-02-15T19:35:57.165Z,11.77
2023-02-15T19:38:26.924Z,12.13
2023-02-15T19:40:53.821Z,11.48
2023-02-15T19:43:26.053Z,11.54
2023-02-15T19:45:53.082Z,11.85
2023-02-15T19:48:19.996Z,12.06
2023-02-15T19:50:47.418Z,12.41
2023-02-15T19:53:23.720Z,12.25
2023-02-15T19:55:50.827Z,12.48
2023-02-15T19:58:20.483Z,12.02
2023-02-15T20:00:48.667Z,12.05
2023-02-15T20:03:15.799Z,12.16
2023-02-15T20:05:42.924Z,12.25
2023-02-15T20:08:21.493Z,12.30
2023-02-15T20:10:48.401Z,12.06
2023-02-15T20:13:25.526Z,12.07
2023-02-15T20:15:52.529Z,12.01
2023-02-15T20:18:22.128Z,11.34
2023-02-15T20:20:53.906Z,11.35
2023-02-15T20:23:24.035Z,11.04
2023-02-15T20:25:50.629Z,11.64
2023-02-15T20:28:22.942Z,11.49
2023-02-15T20:30:51.714Z,11.82
2023-02-15T20:33:19.356Z,11.37
2023-02-15T20:35:46.492Z,10.45
2023-02-15T20:38:22.682Z,10.97
2023-02-15T20:41:09.068Z,11.68
2023-02-15T20:43:36.619Z,11.38
2023-02-15T20:46:04.277Z,11.00
2023-02-15T20:48:31.090Z,11.02
2023-02-15T20:51:00.916Z,10.29
2023-02-15T20:53:28.634Z,10.95
2023-02-15T20:55:57.263Z,10.40
2023-02-15T20:58:26.008Z,10.87
2023-02-15T21:00:59.505Z,10.52
2023-02-15T21:03:30.665Z,10.97
2023-02-15T21:05:58.429Z,10.85
2023-02-15T21:08:25.286Z,10.73
2023-02-15T21:10:53.327Z,10.81
2023-02-15T21:13:21.217Z,10.57
2023-02-15T21:15:49.045Z,10.60
2023-02-15T21:18:19.568Z,10.48
2023-02-15T21:20:48.452Z,10.79
2023-02-15T21:23:16.923Z,10.92
2023-02-15T21:25:46.087Z,10.97
2023-02-15T21:28:30.560Z,10.85
2023-02-15T21:30:58.412Z,11.41
2023-02-15T21:33:25.512Z,11.59
2023-02-15T21:35:54.799Z,11.50
2023-02-15T21:38:26.439Z,11.60
2023-02-15T21:40:53.219Z,11.70
2023-02-15T21:43:42.853Z,11.27
2023-02-15T21:46:36.240Z,11.58
2023-02-15T21:49:04.072Z,10.98
2023-02-15T21:51:50.148Z,11.07
2023-02-15T21:54:18.724Z,11.10
2023-02-15T21:56:47.785Z,10.99
2023-02-15T21:59:16.216Z,10.96
2023-02-15T22:01:45.943Z,10.97
2023-02-15T22:04:21.647Z,11.17
2023-02-15T22:06:48.436Z,11.22
2023-02-15T22:09:21.315Z,10.97
2023-02-15T22:11:48.700Z,11.31
2023-02-15T22:14:38.232Z,11.25
2023-02-15T22:17:16.937Z,11.15
2023-02-15T22:19:45.223Z,10.72
2023-02-15T22:22:12.156Z,10.70
2023-02-15T22:24:39.060Z,10.33
2023-02-15T22:27:06.473Z,10.36
2023-02-15T22:29:33.880Z,10.02
2023-02-15T22:32:00.561Z,10.11
2023-02-15T22:34:31.509Z,10.00
2023-02-15T22:36:58.673Z,10.43
2023-02-15T22:39:25.972Z,9.60
2023-02-15T22:41:53.335Z,10.27
2023-02-15T22:44:24.050Z,10.56
2023-02-15T22:46:51.392Z,10.75
2023-02-15T22:49:18.512Z,10.06
2023-02-15T22:51:49.325Z,9.85
2023-02-15T22:54:16.738Z,10.39
2023-02-15T22:56:51.914Z,10.23
2023-02-15T22:59:26.093Z,10.21
2023-02-15T23:01:53.270Z,10.25
2023-02-15T23:04:22.845Z,10.28
2023-02-15T23:06:50.177Z,10.08
2023-02-15T23:09:17.121Z,10.49
2023-02-15T23:11:44.198Z,10.31
2023-02-15T23:14:36.764Z,10.30
2023-02-15T23:17:03.546Z,9.93
2023-02-15T23:19:30.183Z,9.49
2023-02-15T23:21:56.781Z,9.56
2023-02-15T23:24:26.675Z,9.92
2023-02-15T23:26:53.716Z,9.56
2023-02-15T23:29:23.058Z,9.63
2023-02-15T23:31:52.365Z,9.47
2023-02-15T23:34:20.308Z,9.56
2023-02-15T23:36:47.239Z,9.88
2023-02-15T23:39:44.245Z,9.67
2023-02-15T23:42:21.590Z,10.01
2023-02-15T23:44:48.860Z,9.59
2023-02-15T23:47:21.129Z,10.02
2023-02-15T23:49:47.779Z,10.19
2023-02-15T23:52:14.335Z,9.37
2023-02-15T23:54:40.986Z,9.74
2023-02-15T23:57:11.352Z,9.64
2023-02-15T23:59:41.460Z,9.83
